Time,TemperatureF,DewpointF,PressureIn,WindDirection,WindDirectionDegrees,WindSpeedMPH,WindSpeedGustMPH,Humidity,HourlyPrecipIn,Conditions,Clouds,dailyrainin,SoftwareType,DateUTC
2013-03-23 00:14:00,26.7,14.0,29.81,ENE,68,0.0,1.0,59,0.00,,,0.00,weatherlink.com 1.10,2013-03-23 08:14:00,
2013-03-23 00:29:00,26.6,18.0,29.81,WNW,286,0.0,2.0,69,0.00,,,0.00,weatherlink.com 1.10,2013-03-23 08:29:00,
2013-03-23 00:45:00,25.8,21.0,29.82,NNE,26,2.0,3.0,81,0.00,,,0.00,weatherlink.com 1.10,2013-03-23 08:45:00,
2013-03-23 01:00:00,24.5,20.0,29.82,SSE,166,0.0,6.0,84,0.00,,,0.00,weatherlink.com 1.10,2013-03-23 09:00:00,
2013-03-23 01:15:00,22.3,19.0,29.83,SE,133,0.0,6.0,85,0.00,,,0.00,weatherlink.com 1.10,2013-03-23 09:15:00,
2013-03-23 01:30:00,20.2,16.0,29.84,ESE,105,2.0,7.0,85,0.00,,,0.00,weatherlink.com 1.10,2013-03-23 09:30:00,
2013-03-23 01:45:00,18.2,15.0,29.85,ESE,102,0.0,5.0,86,0.00,,,0.00,weatherlink.com 1.10,2013-03-23 09:45:00,
2013-03-23 02:00:00,16.9,14.0,29.86,SSE,158,0.0,4.0,87,0.00,,,0.00,weatherlink.com 1.10,2013-03-23 10:00:00,
2013-03-23 02:15:00,16.1,13.0,29.87,SSE,150,1.0,2.0,87,0.00,,,0.00,weatherlink.com 1.10,2013-03-23 10:15:00,
2013-03-23 02:30:00,15.2,12.0,29.88,SE,141,0.0,2.0,88,0.00,,,0.00,weatherlink.com 1.10,2013-03-23 10:30:00,
2013-03-23 02:45:00,14.4,11.0,29.89,South,176,0.0,8.0,87,0.00,,,0.00,weatherlink.com 1.10,2013-03-23 10:45:00,
2013-03-23 03:00:00,13.5,10.0,29.91,SW,229,1.0,5.0,87,0.00,,,0.00,weatherlink.com 1.10,2013-03-23 11:00:00,
2013-03-23 03:15:00,12.4,9.0,29.91,SSW,193,0.0,4.0,86,0.00,,,0.00,weatherlink.com 1.10,2013-03-23 11:15:00,
2013-03-23 03:31:00,11.5,8.0,29.92,SE,127,0.0,4.0,86,0.00,,,0.00,weatherlink.com 1.10,2013-03-23 11:31:00,
2013-03-23 03:46:00,10.8,8.0,29.93,SE,141,0.0,2.0,87,0.00,,,0.00,weatherlink.com 1.10,2013-03-23 11:46:00,
2013-03-23 04:01:00,10.2,7.0,29.94,ESE,105,2.0,6.0,87,0.00,,,0.00,weatherlink.com 1.10,2013-03-23 12:01:00,
2013-03-23 04:31:00,9.1,6.0,29.96,SE,141,0.0,3.0,86,0.00,,,0.00,weatherlink.com 1.10,2013-03-23 12:31:00,
2013-03-23 05:31:00,7.2,4.0,29.99,SSW,210,0.0,2.0,86,0.00,,,0.00,weatherlink.com 1.10,2013-03-23 13:31:00,
2013-03-23 05:46:00,6.5,3.0,30.00,SSE,152,0.0,4.0,85,0.00,,,0.00,weatherlink.com 1.10,2013-03-23 13:46:00,
2013-03-23 06:01:00,5.8,2.0,30.00,SE,146,0.0,4.0,85,0.00,,,0.00,weatherlink.com 1.10,2013-03-23 14:01:00,
2013-03-23 06:16:00,5.2,2.0,30.01,SW,226,3.0,4.0,85,0.00,,,0.00,weatherlink.com 1.10,2013-03-23 14:16:00,
2013-03-23 06:31:00,4.8,1.0,30.02,SSE,152,0.0,2.0,85,0.00,,,0.00,weatherlink.com 1.10,2013-03-23 14:31:00,
2013-03-23 06:46:00,4.5,1.0,30.02,SSE,164,0.0,2.0,86,0.00,,,0.00,weatherlink.com 1.10,2013-03-23 14:46:00,
2013-03-23 07:01:00,4.1,1.0,30.03,SE,125,1.0,2.0,85,0.00,,,0.00,weatherlink.com 1.10,2013-03-23 15:01:00,
2013-03-23 07:16:00,3.5,0.0,30.05,South,181,0.0,3.0,84,0.00,,,0.00,weatherlink.com 1.10,2013-03-23 15:16:00,
2013-03-23 07:31:00,2.8,-1.0,30.05,East,101,1.0,3.0,83,0.00,,,0.00,weatherlink.com 1.10,2013-03-23 15:31:00,
2013-03-23 07:46:00,2.2,-2.0,30.06,ESE,121,1.0,5.0,83,0.00,,,0.00,weatherlink.com 1.10,2013-03-23 15:46:00,
2013-03-23 08:02:00,1.4,-3.0,30.07,SSE,159,0.0,7.0,81,0.00,,,0.00,weatherlink.com 1.10,2013-03-23 16:02:00,
2013-03-23 08:17:00,1.0,-4.0,30.08,SSE,156,3.0,5.0,81,0.00,,,0.00,weatherlink.com 1.10,2013-03-23 16:17:00,
2013-03-23 08:32:00,0.6,-4.0,30.08,SSE,149,0.0,1.0,81,0.00,,,0.00,weatherlink.com 1.10,2013-03-23 16:32:00,
2013-03-23 08:47:00,0.0,-5.0,30.09,SSE,150,0.0,2.0,81,0.00,,,0.00,weatherlink.com 1.10,2013-03-23 16:47:00,
2013-03-23 09:02:00,-0.1,-4.0,30.10,South,169,0.0,2.0,82,0.00,,,0.00,weatherlink.com 1.10,2013-03-23 17:02:00,
2013-03-23 09:17:00,-0.3,-5.0,30.11,SSW,197,0.0,3.0,81,0.00,,,0.00,weatherlink.com 1.10,2013-03-23 17:17:00,
2013-03-23 09:32:00,-0.6,-5.0,30.11,SW,225,0.0,3.0,81,0.00,,,0.00,weatherlink.com 1.10,2013-03-23 17:32:00,
2013-03-23 09:47:00,-0.9,-6.0,30.12,SE,138,3.0,3.0,79,0.00,,,0.00,weatherlink.com 1.10,2013-03-23 17:47:00,
2013-03-23 10:02:00,-1.2,-7.0,30.13,SSE,155,0.0,1.0,77,0.00,,,0.00,weatherlink.com 1.10,2013-03-23 18:02:00,
2013-03-23 10:17:00,-1.5,-8.0,30.13,SE,134,1.0,4.0,75,0.00,,,0.00,weatherlink.com 1.10,2013-03-23 18:17:00,
2013-03-23 10:32:00,-1.2,-7.0,30.14,WSW,245,0.0,2.0,75,0.00,,,0.00,weatherlink.com 1.10,2013-03-23 18:32:00,
2013-03-23 10:47:00,-1.1,-8.0,30.14,SSE,158,0.0,2.0,72,0.00,,,0.00,weatherlink.com 1.10,2013-03-23 18:47:00,
2013-03-23 11:02:00,-0.6,-8.0,30.14,South,184,0.0,1.0,71,0.00,,,0.00,weatherlink.com 1.10,2013-03-23 19:02:00,
2013-03-23 11:18:00,-0.1,-9.0,30.15,SSW,200,0.0,3.0,67,0.00,,,0.00,weatherlink.com 1.10,2013-03-23 19:18:00,
2013-03-23 11:33:00,0.3,-8.0,30.16,SSE,148,0.0,2.0,67,0.00,,,0.00,weatherlink.com 1.10,2013-03-23 19:33:00,
2013-03-23 11:48:00,0.6,-9.0,30.16,South,181,0.0,2.0,64,0.00,,,0.00,weatherlink.com 1.10,2013-03-23 19:48:00,
2013-03-23 12:03:00,0.2,-10.0,30.16,ESE,115,1.0,4.0,62,0.00,,,0.00,weatherlink.com 1.10,2013-03-23 20:03:00,
2013-03-23 12:18:00,0.2,-10.0,30.17,South,169,0.0,5.0,62,0.00,,,0.00,weatherlink.com 1.10,2013-03-23 20:18:00,
2013-03-23 12:33:00,0.5,-9.0,30.17,ESE,108,0.0,5.0,63,0.00,,,0.00,weatherlink.com 1.10,2013-03-23 20:33:00,
2013-03-23 12:48:00,0.9,-10.0,30.17,WSW,245,0.0,5.0,61,0.00,,,0.00,weatherlink.com 1.10,2013-03-23 20:48:00,
2013-03-23 13:03:00,1.3,-9.0,30.17,WSW,245,0.0,3.0,61,0.00,,,0.00,weatherlink.com 1.10,2013-03-23 21:03:00,
2013-03-23 13:18:00,2.1,-9.0,30.17,SE,132,1.0,3.0,59,0.00,,,0.00,weatherlink.com 1.10,2013-03-23 21:18:00,
2013-03-23 13:33:00,2.5,-8.0,30.17,WSW,252,0.0,3.0,63,0.00,,,0.00,weatherlink.com 1.10,2013-03-23 21:33:00,
2013-03-23 13:48:00,2.5,-8.0,30.17,WSW,240,0.0,4.0,61,0.00,,,0.00,weatherlink.com 1.10,2013-03-23 21:48:00,
2013-03-23 14:03:00,3.3,-9.0,30.18,SE,146,0.0,2.0,57,0.00,,,0.00,weatherlink.com 1.10,2013-03-23 22:03:00,
2013-03-23 14:18:00,3.6,-9.0,30.18,SSE,150,3.0,4.0,55,0.00,,,0.00,weatherlink.com 1.10,2013-03-23 22:18:00,
2013-03-23 14:33:00,4.0,-9.0,30.18,NNE,12,0.0,3.0,56,0.00,,,0.00,weatherlink.com 1.10,2013-03-23 22:33:00,
2013-03-23 14:49:00,4.4,-8.0,30.18,SE,145,0.0,3.0,56,0.00,,,0.00,weatherlink.com 1.10,2013-03-23 22:49:00,
2013-03-23 15:04:00,4.2,-10.0,30.18,SSE,158,0.0,4.0,53,0.00,,,0.00,weatherlink.com 1.10,2013-03-23 23:04:00,
2013-03-23 15:19:00,4.7,-8.0,30.18,SSE,164,0.0,2.0,55,0.00,,,0.00,weatherlink.com 1.10,2013-03-23 23:19:00,
2013-03-23 15:34:00,4.5,-10.0,30.18,SE,141,0.0,3.0,51,0.00,,,0.00,weatherlink.com 1.10,2013-03-23 23:34:00,
2013-03-23 15:49:00,4.8,-8.0,30.18,SE,126,2.0,3.0,55,0.00,,,0.00,weatherlink.com 1.10,2013-03-23 23:49:00,
2013-03-23 16:04:00,5.0,-9.0,30.18,SSE,164,0.0,3.0,53,0.00,,,0.00,weatherlink.com 1.10,2013-03-24 00:04:00,
2013-03-23 16:19:00,4.8,-10.0,30.18,SSW,200,0.0,3.0,51,0.00,,,0.00,weatherlink.com 1.10,2013-03-24 00:19:00,
2013-03-23 16:34:00,5.0,-8.0,30.18,WSW,238,0.0,2.0,55,0.00,,,0.00,weatherlink.com 1.10,2013-03-24 00:34:00,
2013-03-23 16:49:00,4.4,-10.0,30.18,SSE,158,0.0,1.0,52,0.00,,,0.00,weatherlink.com 1.10,2013-03-24 00:49:00,
2013-03-23 17:04:00,4.8,-8.0,30.18,SSE,150,0.0,3.0,56,0.00,,,0.00,weatherlink.com 1.10,2013-03-24 01:04:00,
2013-03-23 17:19:00,4.6,-8.0,30.18,ESE,108,1.0,6.0,55,0.00,,,0.00,weatherlink.com 1.10,2013-03-24 01:19:00,
2013-03-23 17:34:00,4.7,-8.0,30.18,SE,134,2.0,3.0,57,0.00,,,0.00,weatherlink.com 1.10,2013-03-24 01:34:00,
2013-03-23 17:49:00,4.6,-8.0,30.18,WSW,255,0.0,3.0,55,0.00,,,0.00,weatherlink.com 1.10,2013-03-24 01:49:00,
2013-03-23 18:05:00,4.5,-8.0,30.18,SSE,158,0.0,1.0,56,0.00,,,0.00,weatherlink.com 1.10,2013-03-24 02:05:00,
2013-03-23 18:20:00,4.1,-7.0,30.18,SE,132,0.0,1.0,60,0.00,,,0.00,weatherlink.com 1.10,2013-03-24 02:20:00,
2013-03-23 18:35:00,4.0,-9.0,30.18,SSW,211,0.0,1.0,56,0.00,,,0.00,weatherlink.com 1.10,2013-03-24 02:35:00,
2013-03-23 18:50:00,3.4,-8.0,30.18,South,174,0.0,1.0,59,0.00,,,0.00,weatherlink.com 1.10,2013-03-24 02:50:00,
2013-03-23 19:05:00,2.9,-7.0,30.18,South,173,0.0,0.0,64,0.00,,,0.00,weatherlink.com 1.10,2013-03-24 03:05:00,
2013-03-23 19:20:00,2.0,-6.0,30.18,South,173,0.0,0.0,68,0.00,,,0.00,weatherlink.com 1.10,2013-03-24 03:20:00,
2013-03-23 19:35:00,1.5,-6.0,30.19,South,174,0.0,0.0,71,0.00,,,0.00,weatherlink.com 1.10,2013-03-24 03:35:00,
2013-03-23 19:50:00,1.0,-6.0,30.19,South,173,0.0,0.0,71,0.00,,,0.00,weatherlink.com 1.10,2013-03-24 03:50:00,
2013-03-23 20:05:00,0.5,-7.0,30.19,South,173,0.0,0.0,71,0.00,,,0.00,weatherlink.com 1.10,2013-03-24 04:05:00,
2013-03-23 20:20:00,0.0,-7.0,30.19,South,173,0.0,0.0,72,0.00,,,0.00,weatherlink.com 1.10,2013-03-24 04:20:00,
2013-03-23 20:35:00,-0.5,-8.0,30.19,South,173,0.0,0.0,72,0.00,,,0.00,weatherlink.com 1.10,2013-03-24 04:35:00,
2013-03-23 20:50:00,-1.0,-8.0,30.20,South,173,0.0,0.0,73,0.00,,,0.00,weatherlink.com 1.10,2013-03-24 04:50:00,
2013-03-23 21:05:00,-1.6,-8.0,30.20,South,174,0.0,0.0,75,0.00,,,0.00,weatherlink.com 1.10,2013-03-24 05:05:00,
2013-03-23 21:20:00,-2.2,-8.0,30.20,South,173,0.0,0.0,77,0.00,,,0.00,weatherlink.com 1.10,2013-03-24 05:20:00,
2013-03-23 21:36:00,-2.8,-8.0,30.19,South,173,0.0,0.0,78,0.00,,,0.00,weatherlink.com 1.10,2013-03-24 05:36:00,
2013-03-23 22:06:00,-5.7,-10.0,30.20,ESE,114,0.0,0.0,80,0.00,,,0.00,weatherlink.com 1.10,2013-03-24 06:06:00,
2013-03-23 22:21:00,-5.3,-10.0,30.20,ESE,114,0.0,0.0,81,0.00,,,0.00,weatherlink.com 1.10,2013-03-24 06:21:00,
2013-03-23 22:51:00,-6.3,-11.0,30.20,ESE,114,0.0,0.0,81,0.00,,,0.00,weatherlink.com 1.10,2013-03-24 06:51:00,
2013-03-23 23:06:00,-6.7,-11.0,30.20,ESE,114,0.0,0.0,82,0.00,,,0.00,weatherlink.com 1.10,2013-03-24 07:06:00,
2013-03-23 23:21:00,-7.0,-11.0,30.20,ESE,114,0.0,0.0,81,0.00,,,0.00,weatherlink.com 1.10,2013-03-24 07:21:00,
2013-03-23 23:36:00,-7.4,-12.0,30.19,ESE,115,0.0,0.0,82,0.00,,,0.00,weatherlink.com 1.10,2013-03-24 07:36:00,
2013-03-23 23:51:00,-8.1,-12.0,30.19,ESE,115,0.0,0.0,82,0.00,,,0.00,weatherlink.com 1.10,2013-03-24 07:51:00,